Chance, Alabama
Current Conditions -  °F | °C
As of 6:27 AM on Sunday 23 Nov 2014 (Local Time) from KGZH Reporting Station
Overcast Overcast  
Wind Chill: 65°   Ceiling: 500
Heat Index: 65°   Visibility: 10mi
Dew Point: 63°   Wind: 12mph
Humidity: 93%   Direction: 120°ESE
Pressure: 29.82"   Gusts: NA
Location:  31.8534°N, 87.5753°W
Report Text: KGZH 231227Z AUTO 12010KT 10SM OVC005 18/17 A2982 RMK AO2 T01830172
Loading
Personal Weather Stations






























Interactive Weather Map New forecast layout! Learn more

10-Day Weather Forecast

Advertisements
Track Severe Weather on mobile